Time;durP1;ratioP1;P1;durP2;ratioP2;P2;SDS_P1;SDS_P2;PMS_P1;PMS_P2;Temp;Humidity;BMP_temperature;BMP_pressure;BME280_temperature;BME280_humidity;BME280_pressure;Samples;Min_cycle;Max_cycle;Signal;HPM_P1;HPM_P2
2021/07/21 00:00:29;;;;;;;21.30;8.18;;;;;;;17.20;66.91;99024.84;5115017;28;20139;-72
2021/07/21 00:02:57;;;;;;;24.73;8.55;;;;;;;17.18;66.70;99028.69;5115483;28;20130;-71
2021/07/21 00:05:25;;;;;;;17.65;8.15;;;;;;;17.09;66.40;99025.25;5115176;28;20071;-71
2021/07/21 00:07:52;;;;;;;18.80;8.57;;;;;;;17.07;66.85;99016.56;5096103;28;20047;-71
2021/07/21 00:10:20;;;;;;;21.30;8.30;;;;;;;17.05;67.28;99018.59;5115459;28;20408;-73
2021/07/21 00:15:35;;;;;;;24.83;8.63;;;;;;;17.00;67.08;99011.09;5114981;28;20051;-70
2021/07/21 00:18:26;;;;;;;18.35;8.38;;;;;;;17.00;67.42;99011.09;5112544;28;20680;-70
2021/07/21 00:20:52;;;;;;;22.30;8.80;;;;;;;16.99;67.02;99009.44;5097083;28;20050;-70
2021/07/21 00:23:19;;;;;;;24.55;9.00;;;;;;;16.96;67.57;99015.97;5114609;28;20445;-73
2021/07/21 00:25:46;;;;;;;23.05;9.38;;;;;;;16.93;67.48;99018.16;5095807;28;20122;-71
2021/07/21 00:28:15;;;;;;;24.45;9.68;;;;;;;16.89;67.45;99014.97;5114034;28;20040;-71
2021/07/21 00:30:42;;;;;;;21.23;9.15;;;;;;;16.87;67.95;99006.28;5114545;28;20039;-72
2021/07/21 00:33:12;;;;;;;22.73;9.00;;;;;;;16.82;67.67;99011.31;5095946;28;20641;-74
2021/07/21 00:35:38;;;;;;;22.27;8.73;;;;;;;16.81;67.81;99009.69;5096031;28;20496;-71
2021/07/21 00:38:04;;;;;;;23.80;8.68;;;;;;;16.78;67.94;99005.50;5114085;28;20035;-70
2021/07/21 00:40:31;;;;;;;21.10;9.05;;;;;;;16.75;68.02;98997.84;5096481;28;20035;-74
2021/07/21 00:42:58;;;;;;;23.95;8.98;;;;;;;16.73;68.08;98999.84;5113895;28;20043;-72
2021/07/21 00:45:24;;;;;;;15.83;8.27;;;;;;;16.71;68.20;99001.03;5113538;28;20615;-73
2021/07/21 00:47:50;;;;;;;19.20;8.27;;;;;;;16.71;68.53;99001.91;5114400;28;20048;-72
2021/07/21 00:50:16;;;;;;;18.85;8.45;;;;;;;16.68;67.95;98988.88;5095353;28;20051;-71
2021/07/21 00:52:43;;;;;;;24.35;8.77;;;;;;;16.68;68.42;98990.72;5114286;28;20046;-71
2021/07/21 00:55:11;;;;;;;;;;;;;;;16.63;68.51;98986.72;5114239;28;20048;-72
2021/07/21 00:57:40;;;;;;;20.98;8.80;;;;;;;16.58;68.65;98983.75;5096005;28;19926;-70
2021/07/21 01:00:12;;;;;;;24.88;9.27;;;;;;;16.58;68.95;98977.59;5095359;28;20349;-72
2021/07/21 01:02:48;;;;;;;23.60;8.88;;;;;;;16.56;69.11;98977.78;5096000;28;20132;-69
2021/07/21 01:05:18;;;;;;;20.85;8.88;;;;;;;16.54;69.40;98970.94;5113633;28;20388;-70
2021/07/21 01:07:48;;;;;;;23.67;9.15;;;;;;;16.50;69.43;98978.47;5113541;28;20043;-71
2021/07/21 01:10:17;;;;;;;20.70;9.18;;;;;;;16.46;69.27;98977.13;5095345;28;20082;-71
2021/07/21 01:12:50;;;;;;;18.85;9.23;;;;;;;16.44;69.51;98976.50;5102126;28;20048;-73
2021/07/21 01:15:19;;;;;;;21.40;9.57;;;;;;;16.34;69.51;98966.03;5095265;28;20064;-73
2021/07/21 01:17:53;;;;;;;26.35;9.93;;;;;;;16.33;69.42;98962.50;5094498;28;20091;-71
2021/07/21 01:20:35;;;;;;;25.50;10.32;;;;;;;16.32;69.50;98965.34;5112574;28;20135;-71
2021/07/21 01:23:11;;;;;;;20.08;10.15;;;;;;;16.34;69.20;98952.69;5094878;28;20051;-72
2021/07/21 01:25:49;;;;;;;20.85;9.63;;;;;;;16.36;69.96;98955.97;5095616;28;20454;-70
2021/07/21 01:28:29;;;;;;;18.92;8.65;;;;;;;16.38;69.71;98953.97;5078961;28;20101;-70
2021/07/21 01:30:57;;;;;;;20.35;9.05;;;;;;;16.41;70.00;98942.13;5078458;28;20435;-70
2021/07/21 01:33:25;;;;;;;21.17;9.23;;;;;;;16.44;69.93;98941.78;5095193;28;20392;-73
2021/07/21 01:36:02;;;;;;;25.73;9.70;;;;;;;16.47;70.23;98941.44;5095486;28;20070;-72
2021/07/21 01:38:39;;;;;;;21.83;9.65;;;;;;;16.51;69.41;98937.44;5095301;28;20071;-70
2021/07/21 01:41:19;;;;;;;19.40;9.65;;;;;;;16.56;69.48;98935.06;5095376;28;20381;-71
2021/07/21 01:43:48;;;;;;;;;;;;;;;16.58;69.04;98942.88;5095571;28;20035;-71
2021/07/21 01:46:17;;;;;;;24.45;10.45;;;;;;;16.56;70.05;98945.72;5112890;28;19957;-72
2021/07/21 01:48:45;;;;;;;25.85;10.73;;;;;;;16.45;70.46;98943.47;5093881;28;20065;-71
2021/07/21 01:51:14;;;;;;;25.73;10.32;;;;;;;16.37;70.77;98941.63;5094367;28;20063;-71
2021/07/21 01:53:43;;;;;;;24.87;10.67;;;;;;;16.33;71.05;98945.66;5094308;28;20389;-71
2021/07/21 01:56:14;;;;;;;26.67;10.25;;;;;;;16.30;71.19;98936.19;5076893;28;20047;-70
2021/07/21 01:58:41;;;;;;;;;;;;;;;16.30;71.44;98941.50;5094969;28;20050;-73
2021/07/21 02:01:26;;;;;;;22.73;9.52;;;;;;;16.31;71.16;98937.84;5095434;28;19915;-72
2021/07/21 02:03:54;;;;;;;21.30;9.15;;;;;;;16.36;71.51;98939.16;5093591;28;20075;-74
2021/07/21 02:06:31;;;;;;;27.05;9.70;;;;;;;16.33;71.00;98941.16;5090733;28;20051;-70
2021/07/21 02:08:59;;;;;;;20.73;9.18;;;;;;;16.36;70.88;98944.50;5107137;28;20039;-72
2021/07/21 02:11:27;;;;;;;22.65;9.75;;;;;;;16.41;71.05;98950.13;5093003;28;20568;-73
2021/07/21 02:13:59;;;;;;;21.52;9.35;;;;;;;16.45;70.95;98946.94;5077444;28;20495;-71
2021/07/21 02:16:45;;;;;;;23.42;9.57;;;;;;;16.47;70.70;98946.78;5110523;28;20122;-75
2021/07/21 02:19:17;;;;;;;23.58;10.43;;;;;;;16.47;71.10;98941.44;5094093;28;20393;-73
2021/07/21 02:21:54;;;;;;;24.40;9.98;;;;;;;16.49;71.37;98950.09;5094108;28;20408;-72
2021/07/21 02:24:21;;;;;;;20.30;9.48;;;;;;;16.48;71.47;98948.44;5077347;28;20050;-76
2021/07/21 02:27:08;;;;;;;22.52;10.18;;;;;;;16.51;71.88;98942.75;5097419;28;20128;-73
2021/07/21 02:29:34;;;;;;;18.83;8.60;;;;;;;16.57;71.34;98946.56;5077056;28;20073;-70
2021/07/21 02:32:07;;;;;;;20.60;8.90;;;;;;;16.64;71.43;98947.53;5112393;28;20701;-71
2021/07/21 02:34:34;;;;;;;21.80;9.45;;;;;;;16.71;71.07;98944.97;5111660;28;20047;-70
2021/07/21 02:37:03;;;;;;;16.17;8.02;;;;;;;16.77;69.84;98949.59;5093805;28;20126;-70
2021/07/21 02:39:34;;;;;;;20.90;8.32;;;;;;;16.82;69.47;98964.09;5094308;28;20057;-73
2021/07/21 02:42:00;;;;;;;18.88;8.70;;;;;;;16.88;69.42;98965.22;5112287;28;20039;-71
2021/07/21 02:44:41;;;;;;;17.17;7.57;;;;;;;16.95;67.85;98965.41;5093675;28;20470;-75
2021/07/21 02:47:07;;;;;;;15.18;7.50;;;;;;;17.07;67.87;98968.47;5093128;28;20047;-71
2021/07/21 02:49:33;;;;;;;17.40;8.38;;;;;;;17.15;68.76;98971.09;5111929;28;20105;-74
2021/07/21 02:52:18;;;;;;;21.33;9.57;;;;;;;17.20;69.33;98971.38;5092845;28;20458;-70
2021/07/21 02:55:08;;;;;;;21.85;9.73;;;;;;;17.24;69.68;98970.00;5093101;28;20035;-72
2021/07/21 02:57:44;;;;;;;25.33;10.05;;;;;;;17.41;69.50;98964.56;5093771;28;20532;-71
2021/07/21 03:00:14;;;;;;;21.40;10.05;;;;;;;17.56;69.09;98962.72;5093061;28;20123;-71
2021/07/21 03:02:49;;;;;;;20.05;9.40;;;;;;;17.73;68.53;98963.41;5098756;28;20047;-71
2021/07/21 03:05:18;;;;;;;23.77;10.13;;;;;;;17.87;67.92;98953.75;5080972;28;20048;-73
2021/07/21 03:07:58;;;;;;;21.90;9.60;;;;;;;18.01;67.52;98962.00;5084538;28;20046;-70
2021/07/21 03:10:26;;;;;;;25.92;9.50;;;;;;;18.09;67.61;98961.88;5099231;28;20048;-70
2021/07/21 03:13:22;;;;;;;20.45;8.73;;;;;;;18.15;67.24;98955.78;5100694;28;20051;-74
2021/07/21 03:15:58;;;;;;;;;;;;;;;18.15;67.23;98955.78;5099078;28;20039;-78
2021/07/21 03:18:35;;;;;;;23.55;8.95;;;;;;;18.18;66.57;98954.59;5100266;28;20026;-71
2021/07/21 03:21:02;;;;;;;20.02;8.20;;;;;;;18.32;66.47;98956.44;5119040;28;20043;-74
2021/07/21 03:23:33;;;;;;;28.42;9.27;;;;;;;18.47;65.85;98947.53;5100399;28;20059;-71
2021/07/21 03:26:19;;;;;;;18.13;8.27;;;;;;;18.65;64.69;98949.81;5103371;28;20172;-72
2021/07/21 03:28:47;;;;;;;16.05;8.15;;;;;;;18.80;65.15;98947.91;5100157;28;20103;-71
2021/07/21 03:31:16;;;;;;;21.30;8.77;;;;;;;18.94;64.59;98962.34;5118894;28;20051;-73
2021/07/21 03:33:45;;;;;;;21.50;8.80;;;;;;;19.03;64.47;98955.81;5085852;28;20130;-71
2021/07/21 03:36:15;;;;;;;19.17;9.40;;;;;;;19.13;63.58;98957.34;5119119;28;20054;-72
2021/07/21 03:39:00;;;;;;;18.20;8.68;;;;;;;19.28;63.47;98954.56;5103623;28;20092;-73
2021/07/21 03:41:38;;;;;;;17.58;8.55;;;;;;;19.34;63.34;98959.16;5100480;28;20122;-71
2021/07/21 03:44:06;;;;;;;17.50;8.32;;;;;;;19.47;62.96;98950.44;5100173;28;20564;-72
2021/07/21 03:46:36;;;;;;;19.83;8.57;;;;;;;19.64;62.11;98954.47;5118343;28;20050;-72
2021/07/21 03:49:04;;;;;;;16.05;7.50;;;;;;;19.76;61.26;98957.44;5084005;28;20392;-73
2021/07/21 03:51:48;;;;;;;21.75;8.73;;;;;;;19.81;60.40;98955.03;5102796;28;20040;-72
2021/07/21 03:54:32;;;;;;;21.98;9.27;;;;;;;20.00;60.13;98948.13;5100381;28;20074;-73
2021/07/21 03:57:09;;;;;;;;;;;;;;;20.29;60.21;98951.59;5085723;28;20047;-73
2021/07/21 03:59:38;;;;;;;18.20;8.63;;;;;;;20.52;59.86;98956.66;5100384;28;19915;-75
2021/07/21 04:02:07;;;;;;;19.15;8.80;;;;;;;20.62;58.72;98950.06;5100759;28;20134;-71
2021/07/21 04:04:34;;;;;;;21.85;8.07;;;;;;;20.87;58.23;98953.03;5083700;28;20048;-74
2021/07/21 04:07:02;;;;;;;22.65;9.80;;;;;;;20.98;58.52;98959.69;5083045;28;20043;-74
2021/07/21 04:09:35;;;;;;;18.98;9.18;;;;;;;21.19;58.87;98956.00;5100606;28;20514;-75
2021/07/21 04:12:05;;;;;;;16.67;8.52;;;;;;;21.44;58.31;98956.22;5079287;28;20051;-71
2021/07/21 04:14:50;;;;;;;15.43;8.30;;;;;;;22.30;56.27;98945.53;5082003;28;20052;-73
2021/07/21 04:17:30;;;;;;;15.20;6.28;;;;;;;22.93;51.87;98954.81;5096396;28;20446;-72
2021/07/21 04:19:57;;;;;;;15.27;7.05;;;;;;;23.14;49.84;98950.09;5097041;28;20123;-73
2021/07/21 04:22:24;;;;;;;11.93;5.22;;;;;;;23.39;48.16;98950.97;5079628;28;20055;-72
2021/07/21 04:24:53;;;;;;;12.23;5.05;;;;;;;23.51;47.74;98945.66;5097393;28;20058;-71
2021/07/21 04:27:20;;;;;;;13.30;4.97;;;;;;;23.84;46.97;98946.41;5079750;28;20047;-75
2021/07/21 04:30:06;;;;;;;;;;;;;;;24.04;45.81;98955.16;5089198;28;20059;-77
2021/07/21 04:32:34;;;;;;;10.27;4.97;;;;;;;24.38;45.26;98954.78;5079810;28;20372;-72
2021/07/21 04:35:01;;;;;;;10.63;4.70;;;;;;;24.70;44.01;98955.44;5096739;28;20048;-72
2021/07/21 04:37:29;;;;;;;8.95;5.03;;;;;;;25.00;43.28;98951.91;5096738;28;20531;-73
2021/07/21 04:40:00;;;;;;;15.20;5.78;;;;;;;25.20;43.41;98961.59;5115573;28;20047;-74
2021/07/21 04:42:47;;;;;;;14.57;5.00;;;;;;;26.03;41.37;98955.41;5113904;28;20056;-73
2021/07/21 04:45:16;;;;;;;10.95;4.97;;;;;;;26.71;39.96;98964.69;5096722;28;20104;-72
2021/07/21 04:47:42;;;;;;;16.77;5.55;;;;;;;27.43;38.69;98959.78;5113551;28;20031;-74
2021/07/21 04:50:10;;;;;;;14.67;5.20;;;;;;;27.32;38.25;98953.31;5096868;28;20091;-77
2021/07/21 04:52:37;;;;;;;14.45;5.70;;;;;;;27.71;38.14;98966.19;5115143;28;20559;-72
2021/07/21 04:55:06;;;;;;;13.23;5.20;;;;;;;28.13;36.14;98963.00;5115127;28;20070;-77
2021/07/21 04:57:32;;;;;;;11.40;5.03;;;;;;;28.04;36.49;98961.81;5115053;28;20348;-71
2021/07/21 05:00:06;;;;;;;9.38;4.78;;;;;;;28.01;36.21;98959.53;5096792;28;20039;-73
2021/07/21 05:02:47;;;;;;;14.55;4.97;;;;;;;28.32;36.07;98962.69;5096287;28;20049;-72
2021/07/21 05:05:16;;;;;;;13.40;5.13;;;;;;;28.32;35.34;98962.69;5096650;28;20047;-75
2021/07/21 05:07:55;;;;;;;14.20;5.03;;;;;;;28.33;35.42;98961.63;5095957;28;20088;-72
2021/07/21 05:10:22;;;;;;;16.95;5.10;;;;;;;28.82;34.08;98953.47;5095811;28;20059;-72
2021/07/21 05:12:48;;;;;;;13.45;4.85;;;;;;;28.95;34.23;98967.75;5096112;28;20043;-75
2021/07/21 05:15:19;;;;;;;12.50;5.05;;;;;;;28.49;34.67;98960.72;5114154;28;20051;-74
2021/07/21 05:17:46;;;;;;;13.23;4.93;;;;;;;28.49;34.83;98968.88;5114011;28;20445;-71
2021/07/21 05:20:35;;;;;;;14.45;5.07;;;;;;;28.84;34.08;98961.41;5112923;28;20044;-74
2021/07/21 05:23:07;;;;;;;13.75;5.07;;;;;;;28.65;34.32;98963.63;5095450;28;20043;-75
2021/07/21 05:25:39;;;;;;;13.85;4.70;;;;;;;28.93;33.59;98961.78;5113686;28;20116;-72
2021/07/21 05:28:25;;;;;;;13.95;4.65;;;;;;;29.92;32.25;98966.97;5113842;28;20040;-72
2021/07/21 05:30:55;;;;;;;10.30;5.60;;;;;;;30.92;30.64;98966.00;5113869;28;20043;-73
2021/07/21 05:33:21;;;;;;;14.07;5.80;;;;;;;31.36;29.86;98970.16;5113694;28;20040;-73
2021/07/21 05:35:49;;;;;;;11.57;4.68;;;;;;;32.13;28.92;98954.75;5113136;28;20043;-73
2021/07/21 05:38:20;;;;;;;9.60;4.32;;;;;;;32.83;28.11;98962.97;5095498;28;20043;-75
2021/07/21 05:40:46;;;;;;;9.73;3.97;;;;;;;33.64;27.10;98964.56;5094903;28;20055;-74
2021/07/21 05:43:38;;;;;;;10.27;4.15;;;;;;;34.03;25.31;98961.72;5095304;28;20461;-73
2021/07/21 05:46:07;;;;;;;12.25;4.15;;;;;;;33.82;26.13;98968.50;5078570;28;20411;-74
2021/07/21 05:48:39;;;;;;;12.27;4.95;;;;;;;33.53;26.26;98961.09;5094976;28;20035;-73
2021/07/21 05:51:31;;;;;;;9.30;4.32;;;;;;;33.18;26.26;98958.31;5088320;28;20105;-73
2021/07/21 05:54:18;;;;;;;11.60;4.20;;;;;;;33.04;27.09;98958.16;5095114;28;20050;-73
2021/07/21 05:56:43;;;;;;;10.07;4.13;;;;;;;32.26;27.52;98948.72;5112798;28;20036;-75
2021/07/21 05:59:18;;;;;;;9.68;4.00;;;;;;;31.61;27.37;98950.19;5079207;28;20047;-74
2021/07/21 06:01:44;;;;;;;11.10;3.70;;;;;;;31.36;28.32;98947.50;5113385;28;20066;-75
2021/07/21 06:04:10;;;;;;;9.57;3.90;;;;;;;31.21;28.42;98946.41;5095581;28;20047;-74
2021/07/21 06:06:42;;;;;;;9.48;3.90;;;;;;;31.16;28.46;98945.59;5114564;28;20644;-76
2021/07/21 06:09:11;;;;;;;7.10;3.22;;;;;;;31.58;28.22;98952.69;5113903;28;20074;-73
2021/07/21 06:12:12;;;;;;;5.65;3.20;;;;;;;32.12;27.12;98942.19;5038032;28;20064;-74
2021/07/21 06:14:38;;;;;;;6.65;3.78;;;;;;;32.18;26.50;98946.53;5049807;28;20049;-78
2021/07/21 06:17:04;;;;;;;8.40;3.67;;;;;;;32.07;26.33;98943.81;5049983;28;20468;-76
2021/07/21 06:19:45;;;;;;;9.45;3.50;;;;;;;32.28;26.77;98943.78;5033186;28;20068;-73
2021/07/21 06:22:18;;;;;;;12.03;3.43;;;;;;;32.49;26.24;98947.25;5033120;28;20040;-73
2021/07/21 06:24:45;;;;;;;6.53;3.08;;;;;;;32.68;25.11;98949.34;5049858;28;20084;-74
2021/07/21 06:27:23;;;;;;;6.97;2.88;;;;;;;32.95;24.88;98943.44;5018772;28;20154;-74
2021/07/21 06:29:54;;;;;;;9.30;2.90;;;;;;;33.02;25.10;98941.22;5049838;28;20072;-74
2021/07/21 06:32:20;;;;;;;8.73;3.07;;;;;;;32.51;25.92;98949.69;5033061;28;20072;-76
2021/07/21 06:34:47;;;;;;;12.38;3.40;;;;;;;31.94;26.58;98941.69;5032304;28;20041;-72
2021/07/21 06:37:15;;;;;;;11.38;2.83;;;;;;;32.10;27.13;98940.53;5033124;28;20060;-75
2021/07/21 06:39:41;;;;;;;11.50;3.10;;;;;;;32.35;25.90;98941.56;5032880;28;20065;-73
2021/07/21 06:42:09;;;;;;;9.57;3.03;;;;;;;32.51;25.64;98936.84;5033232;28;20410;-74
2021/07/21 06:44:35;;;;;;;11.38;3.00;;;;;;;32.80;25.58;98940.78;5032903;28;20051;-73
2021/07/21 06:47:27;;;;;;;16.25;6.78;;;;;;;32.69;25.44;98943.56;5107876;28;20112;-73
2021/07/21 06:50:03;;;;;;;14.85;10.68;;;;;;;33.29;24.97;98944.59;5112826;28;20040;-76
2021/07/21 06:52:31;;;;;;;10.98;4.05;;;;;;;33.62;24.50;98942.91;5112736;28;20488;-75
2021/07/21 06:54:58;;;;;;;;;;;;;;;33.99;24.07;98938.69;5094651;28;20132;-77
2021/07/21 06:57:28;;;;;;;11.15;5.05;;;;;;;33.92;23.56;98937.41;5112343;28;19927;-74
2021/07/21 07:00:17;;;;;;;9.88;3.88;;;;;;;34.65;22.91;98936.22;5049115;28;20061;-74
2021/07/21 07:03:02;;;;;;;10.10;3.97;;;;;;;35.42;22.04;98944.44;5032964;28;20080;-75
2021/07/21 07:05:47;;;;;;;8.88;3.70;;;;;;;35.19;22.25;98937.91;5049167;28;20565;-73
2021/07/21 07:08:31;;;;;;;11.85;4.07;;;;;;;35.21;22.24;98925.50;5049599;28;20175;-76
2021/07/21 07:11:17;;;;;;;10.90;4.50;;;;;;;34.12;23.71;98933.59;5049170;28;20413;-77
2021/07/21 07:13:43;;;;;;;14.57;5.13;;;;;;;33.84;24.23;98936.94;5032711;28;20037;-74
2021/07/21 07:16:11;;;;;;;9.43;4.37;;;;;;;33.92;23.95;98932.75;5049664;28;20048;-74
2021/07/21 07:18:37;;;;;;;9.95;4.40;;;;;;;34.28;23.21;98936.97;5033067;28;20080;-77
2021/07/21 07:21:03;;;;;;;10.10;5.07;;;;;;;34.73;22.74;98934.75;5049453;28;20150;-75
2021/07/21 07:23:29;;;;;;;13.10;5.22;;;;;;;35.44;22.08;98925.69;5033135;28;20055;-74
2021/07/21 07:25:55;;;;;;;11.53;4.40;;;;;;;35.24;21.71;98926.81;5049545;28;20045;-78
2021/07/21 07:28:21;;;;;;;10.50;4.30;;;;;;;35.67;21.83;98928.59;5049582;28;20076;-77
2021/07/21 07:30:46;;;;;;;8.55;4.20;;;;;;;35.95;21.45;98927.50;5048880;28;20065;-74
2021/07/21 07:33:12;;;;;;;11.30;4.30;;;;;;;36.61;21.01;98926.41;5049569;28;20052;-74
2021/07/21 07:35:40;;;;;;;11.33;4.07;;;;;;;36.83;20.19;98930.34;5049002;28;20490;-74
2021/07/21 07:38:11;;;;;;;11.85;3.63;;;;;;;36.03;21.16;98931.47;5101631;28;20139;-72
2021/07/21 07:40:38;;;;;;;14.75;3.58;;;;;;;36.05;21.33;98931.16;5112697;28;20093;-73
2021/07/21 07:43:04;;;;;;;8.90;3.08;;;;;;;36.14;20.47;98929.34;5112188;28;20122;-77
2021/07/21 07:45:30;;;;;;;7.10;2.70;;;;;;;35.14;21.65;98922.31;5112164;28;20685;-74
2021/07/21 07:47:57;;;;;;;7.68;3.00;;;;;;;34.62;21.83;98928.59;5097989;28;20071;-74
2021/07/21 07:50:23;;;;;;;10.13;2.75;;;;;;;33.82;23.39;98932.84;5097706;28;20086;-75
2021/07/21 07:52:49;;;;;;;6.63;3.20;;;;;;;34.11;23.11;98934.69;5115740;28;20063;-80
2021/07/21 07:55:15;;;;;;;13.52;4.95;;;;;;;34.74;22.23;98930.06;5115977;28;20039;-78
2021/07/21 07:57:41;;;;;;;7.70;4.20;;;;;;;34.33;22.58;98929.50;5115514;28;20048;-76
2021/07/21 08:00:09;;;;;;;9.30;3.37;;;;;;;35.52;21.40;98927.75;5097532;28;20036;-76
2021/07/21 08:02:39;;;;;;;3.75;2.70;;;;;;;37.22;19.49;98921.41;5115590;28;20058;-73
2021/07/21 08:05:05;;;;;;;9.45;3.92;;;;;;;38.64;18.48;98926.31;5115620;28;20051;-76
2021/07/21 08:07:34;;;;;;;15.35;8.02;;;;;;;38.44;17.88;98925.81;5097100;28;20529;-73
2021/07/21 08:10:00;;;;;;;12.50;3.90;;;;;;;39.19;17.50;98921.28;5115377;28;20047;-74
2021/07/21 08:12:26;;;;;;;8.07;3.33;;;;;;;39.87;16.39;98928.94;5097251;28;20096;-77
2021/07/21 08:14:52;;;;;;;5.60;2.90;;;;;;;40.30;16.21;98916.00;5115790;28;20039;-75
2021/07/21 08:17:17;;;;;;;7.32;2.83;;;;;;;41.01;15.58;98920.66;5115441;28;20111;-78
2021/07/21 08:19:44;;;;;;;8.50;3.00;;;;;;;41.45;15.07;98925.81;5115108;28;20051;-81
2021/07/21 08:22:14;;;;;;;7.18;3.40;;;;;;;41.21;14.42;98923.75;5097187;28;20042;-74
2021/07/21 08:24:40;;;;;;;8.20;3.72;;;;;;;41.13;14.93;98924.66;5115074;28;20588;-76
2021/07/21 08:27:05;;;;;;;12.50;7.32;;;;;;;40.61;15.34;98915.63;5115440;28;20201;-76
2021/07/21 08:29:31;;;;;;;11.27;4.22;;;;;;;39.84;15.56;98919.31;5115062;28;20096;-75
2021/07/21 08:31:57;;;;;;;13.07;3.40;;;;;;;39.08;16.46;98913.31;5114954;28;20055;-75
2021/07/21 08:34:23;;;;;;;6.85;3.30;;;;;;;38.88;16.90;98916.75;5115324;28;20054;-75
2021/07/21 08:36:48;;;;;;;9.52;2.92;;;;;;;38.80;17.17;98910.09;5114600;28;20579;-78
2021/07/21 08:39:14;;;;;;;15.68;3.50;;;;;;;40.05;16.41;98905.50;5114772;28;20506;-77
2021/07/21 08:41:41;;;;;;;7.80;3.60;;;;;;;40.68;15.44;98913.13;5114775;28;20088;-76
2021/07/21 08:44:07;;;;;;;7.72;3.33;;;;;;;40.54;15.42;98907.00;5115034;28;20047;-78
2021/07/21 08:46:36;;;;;;;6.38;3.00;;;;;;;40.08;15.62;98896.53;5114885;28;20079;-78
2021/07/21 08:49:02;;;;;;;10.38;2.92;;;;;;;40.27;15.70;98909.97;5114547;28;20039;-76
2021/07/21 08:51:28;;;;;;;5.45;2.95;;;;;;;40.41;15.64;98892.28;5114244;28;20062;-81
2021/07/21 08:53:53;;;;;;;14.93;3.35;;;;;;;40.09;15.91;98902.88;5114391;28;20400;-76
2021/07/21 08:56:20;;;;;;;11.90;3.55;;;;;;;38.46;17.43;98906.97;5114285;28;20050;-76
2021/07/21 08:58:47;;;;;;;18.50;10.70;;;;;;;39.10;16.55;98902.72;5114321;28;20039;-74
2021/07/21 09:01:14;;;;;;;12.88;5.78;;;;;;;40.72;15.86;98896.63;5114417;28;20177;-74
2021/07/21 09:03:41;;;;;;;9.27;3.13;;;;;;;40.87;15.40;98893.19;5114260;28;20047;-76
2021/07/21 09:06:08;;;;;;;5.00;3.10;;;;;;;40.58;15.27;98892.16;5113816;28;20046;-73
2021/07/21 09:08:34;;;;;;;10.07;3.17;;;;;;;39.46;15.96;98893.22;5113790;28;20405;-76
2021/07/21 09:11:00;;;;;;;;;;;;;;;37.53;18.18;98898.53;5114572;28;20055;-76
2021/07/21 09:13:26;;;;;;;7.60;2.78;;;;;;;35.94;19.34;98883.75;5114631;28;19942;-80
2021/07/21 09:15:52;;;;;;;6.95;2.67;;;;;;;35.35;20.11;98887.03;5114138;28;20049;-74
2021/07/21 09:18:18;;;;;;;9.82;4.07;;;;;;;35.44;20.32;98879.75;5114197;28;20047;-78
2021/07/21 09:20:56;;;;;;;;;;;;;;;34.71;21.28;98878.44;5114172;28;20508;-75
2021/07/21 09:23:42;;;;;;;11.18;3.67;;;;;;;33.43;22.43;98881.69;5096256;28;19915;-75
2021/07/21 09:26:09;;;;;;;6.68;3.60;;;;;;;34.77;21.28;98880.84;5114159;28;20066;-76
2021/07/21 09:28:36;;;;;;;7.68;3.00;;;;;;;35.52;20.63;98878.22;5113814;28;20043;-74
2021/07/21 09:31:04;;;;;;;5.80;3.00;;;;;;;34.99;21.26;98877.50;5095348;28;20062;-75
2021/07/21 09:33:30;;;;;;;9.15;3.05;;;;;;;34.71;21.92;98864.72;5113784;28;20044;-79
2021/07/21 09:35:57;;;;;;;9.20;3.05;;;;;;;35.45;21.23;98872.31;5095350;28;20043;-75
2021/07/21 09:38:23;;;;;;;;;;;;;;;35.48;20.78;98866.22;5114519;28;20035;-76
2021/07/21 09:40:57;;;;;;;8.27;3.22;;;;;;;36.31;20.25;98856.28;5113592;28;19922;-75
2021/07/21 09:43:29;;;;;;;10.18;2.55;;;;;;;36.33;20.38;98856.78;5113913;28;20031;-74
2021/07/21 09:46:13;;;;;;;6.72;2.60;;;;;;;35.92;20.39;98853.78;5078220;28;20515;-75
2021/07/21 09:48:42;;;;;;;5.22;2.67;;;;;;;35.21;20.99;98851.25;5113437;28;20040;-77
2021/07/21 09:51:10;;;;;;;11.23;3.10;;;;;;;34.64;21.43;98848.63;5113362;28;20662;-74
2021/07/21 09:53:41;;;;;;;6.88;2.60;;;;;;;34.99;21.21;98839.00;5112754;28;20042;-74
2021/07/21 09:56:13;;;;;;;7.97;2.75;;;;;;;34.69;21.18;98843.03;5095673;28;20528;-75
2021/07/21 09:58:45;;;;;;;9.07;2.70;;;;;;;35.03;21.61;98843.91;5096013;28;20122;-78
2021/07/21 10:01:11;;;;;;;9.90;2.63;;;;;;;35.33;21.20;98844.47;5113718;28;20200;-76
2021/07/21 10:03:40;;;;;;;7.47;5.20;;;;;;;35.75;20.63;98848.06;5113505;28;20124;-78
2021/07/21 10:06:06;;;;;;;5.80;2.78;;;;;;;34.57;21.42;98843.53;5111897;28;20043;-76
2021/07/21 10:08:39;;;;;;;5.88;2.60;;;;;;;33.66;22.74;98847.13;5112932;28;20043;-76
2021/07/21 10:11:30;;;;;;;7.45;2.95;;;;;;;34.33;22.37;98841.66;5113553;28;20104;-75
2021/07/21 10:14:02;;;;;;;6.10;2.75;;;;;;;34.57;21.42;98837.19;5095228;28;20099;-74
2021/07/21 10:16:43;;;;;;;6.10;2.83;;;;;;;33.79;22.45;98837.41;5095109;28;20035;-73
2021/07/21 10:19:28;;;;;;;6.30;2.85;;;;;;;33.11;23.29;98829.06;5113413;28;20035;-75
2021/07/21 10:22:00;;;;;;;10.00;2.80;;;;;;;32.76;23.56;98830.19;5112913;28;20041;-75
2021/07/21 10:24:29;;;;;;;9.05;3.05;;;;;;;31.93;24.90;98820.50;5112773;28;20088;-74
2021/07/21 10:26:56;;;;;;;8.98;3.83;;;;;;;31.41;25.36;98819.84;5112927;28;20080;-79
2021/07/21 10:29:22;;;;;;;8.30;2.97;;;;;;;31.20;26.28;98818.28;5095468;28;20039;-75
2021/07/21 10:31:48;;;;;;;7.63;2.83;;;;;;;31.31;26.10;98819.88;5113094;28;20047;-76
2021/07/21 10:34:16;;;;;;;10.00;3.03;;;;;;;32.06;24.94;98821.81;5095003;28;20039;-77
2021/07/21 10:36:42;;;;;;;8.90;4.05;;;;;;;32.46;24.25;98821.06;5112755;28;20040;-78
2021/07/21 10:39:14;;;;;;;4.28;2.90;;;;;;;32.06;24.50;98824.53;5113339;28;20126;-75
2021/07/21 10:41:40;;;;;;;42.33;5.25;;;;;;;31.99;25.09;98824.06;5095123;28;20047;-76
2021/07/21 10:44:11;;;;;;;9.02;3.55;;;;;;;32.13;24.70;98813.31;5094803;28;20126;-77
2021/07/21 10:46:40;;;;;;;7.85;4.10;;;;;;;32.13;25.34;98817.94;5112861;28;20126;-77
2021/07/21 10:49:39;;;;;;;13.63;6.40;;;;;;;31.13;26.26;98819.38;5112421;28;20039;-76
2021/07/21 11:00:16;;;;;;;9.38;5.30;;;;;;;30.60;27.66;98821.53;5112371;28;20051;-77
2021/07/21 11:02:44;;;;;;;8.32;3.60;;;;;;;31.10;26.94;98819.09;5112392;28;20079;-75
2021/07/21 11:05:29;;;;;;;6.43;3.47;;;;;;;31.47;26.03;98820.66;5112291;28;20096;-74
2021/07/21 11:07:56;;;;;;;7.40;3.58;;;;;;;31.43;26.36;98825.88;5112264;28;20036;-75
2021/07/21 11:10:36;;;;;;;10.13;3.58;;;;;;;30.86;26.79;98827.03;5112183;28;20534;-74
2021/07/21 11:13:03;;;;;;;7.18;3.53;;;;;;;31.07;26.64;98820.47;5112470;28;20266;-74
2021/07/21 11:15:39;;;;;;;8.40;3.08;;;;;;;31.05;26.64;98817.16;5112177;28;20119;-73
2021/07/21 11:18:23;;;;;;;6.60;2.70;;;;;;;30.89;26.79;98823.72;5112054;28;20061;-75
2021/07/21 11:21:04;;;;;;;5.70;2.88;;;;;;;30.76;26.85;98828.66;5114399;28;20040;-79
2021/07/21 11:23:42;;;;;;;5.70;3.03;;;;;;;30.98;26.49;98830.28;5116381;28;20043;-75
2021/07/21 11:26:30;;;;;;;5.78;3.20;;;;;;;30.64;26.82;98834.38;5116191;28;20067;-74
2021/07/21 11:28:57;;;;;;;6.38;3.40;;;;;;;30.09;27.36;98836.69;5081251;28;20092;-75
2021/07/21 11:31:53;;;;;;;7.78;3.63;;;;;;;29.84;28.01;98838.19;5098748;28;20098;-76
2021/07/21 11:34:39;;;;;;;8.85;4.20;;;;;;;30.07;27.80;98830.69;5116103;28;20047;-74
2021/07/21 11:37:20;;;;;;;7.97;4.07;;;;;;;30.14;27.56;98831.25;5116002;28;20615;-75
2021/07/21 11:39:48;;;;;;;6.70;3.20;;;;;;;30.09;27.36;98828.50;5116270;28;20277;-75
2021/07/21 11:42:23;;;;;;;7.20;4.70;;;;;;;29.80;27.79;98831.66;5116306;28;20164;-74
2021/07/21 11:45:12;;;;;;;7.72;3.10;;;;;;;29.58;28.31;98831.00;5115516;28;20061;-77
2021/07/21 11:47:53;;;;;;;7.18;3.47;;;;;;;29.32;28.61;98830.84;5103906;28;20100;-76
2021/07/21 11:50:20;;;;;;;7.03;2.85;;;;;;;29.02;29.11;98832.25;5115626;28;20489;-75
2021/07/21 11:52:54;;;;;;;6.93;2.60;;;;;;;28.88;29.26;98824.50;5115956;28;20039;-74
2021/07/21 11:55:24;;;;;;;7.50;3.00;;;;;;;28.34;30.07;98830.00;5115891;28;20054;-74
2021/07/21 11:57:52;;;;;;;7.70;3.08;;;;;;;28.39;30.43;98824.63;5115701;28;20032;-74
2021/07/21 12:00:19;;;;;;;7.53;3.00;;;;;;;28.32;30.63;98824.00;5115622;28;20442;-77